createdAt,value
2023-01-30T00:00:54.326Z,7.82
2023-01-30T00:03:22.347Z,9.18
2023-01-30T00:05:49.212Z,9.40
2023-01-30T00:08:16.433Z,9.30
2023-01-30T00:10:44.160Z,9.27
2023-01-30T00:13:11.903Z,8.65
2023-01-30T00:15:38.530Z,9.63
2023-01-30T00:18:05.275Z,8.80
2023-01-30T00:20:32.592Z,8.75
2023-01-30T00:23:00.984Z,10.00
2023-01-30T00:25:28.888Z,9.10
2023-01-30T00:27:56.885Z,8.45
2023-01-30T00:30:23.470Z,9.82
2023-01-30T00:32:54.702Z,9.25
2023-01-30T00:35:22.188Z,9.82
2023-01-30T00:37:48.910Z,10.10
2023-01-30T00:40:15.879Z,9.18
2023-01-30T00:43:01.400Z,7.80
2023-01-30T00:45:46.608Z,7.88
2023-01-30T00:48:13.534Z,7.55
2023-01-30T00:50:42.787Z,8.60
2023-01-30T00:53:14.260Z,8.60
2023-01-30T00:55:41.741Z,8.43
2023-01-30T00:58:08.350Z,6.60
2023-01-30T01:00:35.624Z,8.30
2023-01-30T01:03:03.070Z,8.43
2023-01-30T01:05:29.918Z,8.18
2023-01-30T01:07:56.632Z,8.30
2023-01-30T01:10:23.349Z,7.97
2023-01-30T01:12:52.639Z,8.27
2023-01-30T01:15:20.914Z,8.40
2023-01-30T01:17:48.289Z,8.38
2023-01-30T01:20:15.552Z,6.90
2023-01-30T01:22:42.174Z,5.80
2023-01-30T01:25:10.147Z,6.47
2023-01-30T01:27:37.506Z,5.60
2023-01-30T01:30:05.852Z,6.82
2023-01-30T01:32:32.694Z,8.23
2023-01-30T01:34:59.586Z,6.20
2023-01-30T01:37:26.693Z,7.53
2023-01-30T01:40:12.288Z,7.15
2023-01-30T01:42:39.538Z,7.05
2023-01-30T01:45:26.829Z,6.35
2023-01-30T01:48:05.992Z,6.00
2023-01-30T01:50:41.843Z,6.68
2023-01-30T01:53:12.330Z,6.38
2023-01-30T01:55:41.805Z,5.95
2023-01-30T01:58:13.015Z,6.85
2023-01-30T02:00:39.766Z,7.38
2023-01-30T02:03:12.239Z,3.40
2023-01-30T02:05:43.904Z,6.25
2023-01-30T02:08:23.542Z,5.70
2023-01-30T02:10:59.122Z,6.10
2023-01-30T02:13:26.743Z,6.28
2023-01-30T02:15:53.588Z,6.35
2023-01-30T02:18:20.360Z,6.50
2023-01-30T02:21:24.776Z,7.38
2023-01-30T02:24:30.183Z,4.97
2023-01-30T02:27:02.899Z,4.25
2023-01-30T02:30:20.059Z,5.93
2023-01-30T02:32:52.488Z,5.18
2023-01-30T02:35:37.850Z,4.63
2023-01-30T02:38:17.728Z,4.93
2023-01-30T02:40:59.637Z,6.10
2023-01-30T02:43:45.097Z,5.50
2023-01-30T02:46:20.760Z,4.60
2023-01-30T02:48:49.152Z,5.40
2023-01-30T02:51:28.179Z,5.55
2023-01-30T02:53:55.340Z,5.25
2023-01-30T02:56:21.953Z,5.13
2023-01-30T02:59:07.242Z,4.68
2023-01-30T03:02:12.886Z,5.18
2023-01-30T03:04:58.648Z,4.63
2023-01-30T03:07:42.305Z,3.97
2023-01-30T03:10:38.011Z,4.55
2023-01-30T03:13:59.030Z,4.03
2023-01-30T03:16:41.259Z,4.50
2023-01-30T03:19:12.665Z,4.50
2023-01-30T03:21:44.747Z,4.30
2023-01-30T03:24:12.676Z,4.43
2023-01-30T03:27:04.239Z,5.40
2023-01-30T03:29:30.859Z,4.70
2023-01-30T03:31:57.472Z,5.22
2023-01-30T03:34:24.253Z,5.97
2023-01-30T03:36:51.646Z,5.60
2023-01-30T03:39:18.548Z,6.35
2023-01-30T03:41:46.001Z,6.55
2023-01-30T03:44:13.107Z,6.05
2023-01-30T03:46:39.775Z,6.00
2023-01-30T03:49:06.513Z,6.05
2023-01-30T03:51:33.037Z,5.13
2023-01-30T03:53:59.781Z,6.10
2023-01-30T03:56:26.568Z,6.60
2023-01-30T03:58:53.164Z,6.10
2023-01-30T04:01:19.891Z,7.00
2023-01-30T04:03:46.516Z,7.13
2023-01-30T04:06:13.112Z,7.25
2023-01-30T04:08:40.098Z,6.15
2023-01-30T04:11:06.819Z,7.07
2023-01-30T04:13:33.592Z,7.15
2023-01-30T04:16:29.716Z,6.32
2023-01-30T04:18:56.322Z,6.25
2023-01-30T04:21:23.300Z,6.53
2023-01-30T04:23:50.288Z,7.97
2023-01-30T04:26:16.886Z,8.20
2023-01-30T04:28:44.728Z,7.65
2023-01-30T04:31:11.878Z,7.72
2023-01-30T04:33:40.159Z,5.25
2023-01-30T04:36:08.845Z,7.57
2023-01-30T04:38:36.283Z,7.32
2023-01-30T04:41:03.683Z,8.75
2023-01-30T04:43:31.215Z,8.20
2023-01-30T04:45:58.245Z,8.82
2023-01-30T04:48:25.876Z,8.15
2023-01-30T04:50:55.520Z,7.50
2023-01-30T04:53:23.388Z,8.15
2023-01-30T04:55:50.209Z,8.55
2023-01-30T04:58:19.517Z,8.38
2023-01-30T05:00:46.770Z,7.88
2023-01-30T05:03:13.591Z,8.20
2023-01-30T05:05:40.365Z,7.97
2023-01-30T05:08:07.373Z,9.82
2023-01-30T05:10:34.005Z,7.82
2023-01-30T05:13:05.776Z,7.80
2023-01-30T05:15:33.147Z,8.55
2023-01-30T05:18:00.386Z,8.63
2023-01-30T05:20:27.288Z,9.10
2023-01-30T05:22:53.954Z,9.35
2023-01-30T05:25:20.900Z,11.20
2023-01-30T05:27:47.998Z,9.07
2023-01-30T05:30:14.716Z,10.02
2023-01-30T05:32:41.313Z,9.35
2023-01-30T05:35:08.697Z,9.30
2023-01-30T05:37:35.354Z,10.68
2023-01-30T05:40:02.344Z,11.45
2023-01-30T05:42:29.403Z,10.13
2023-01-30T05:44:56.028Z,12.55
2023-01-30T05:47:22.705Z,11.30
2023-01-30T05:49:49.426Z,12.75
2023-01-30T05:52:16.117Z,12.98
2023-01-30T05:54:42.802Z,12.73
2023-01-30T05:57:09.482Z,12.70
2023-01-30T05:59:36.122Z,11.07
2023-01-30T06:02:02.930Z,12.85
2023-01-30T06:04:29.665Z,13.60
2023-01-30T06:06:56.248Z,13.02
2023-01-30T06:09:22.861Z,12.68
2023-01-30T06:11:50.055Z,13.45
2023-01-30T06:14:17.010Z,14.18
2023-01-30T06:16:43.650Z,13.82
2023-01-30T06:19:10.499Z,13.65
2023-01-30T06:21:37.102Z,13.95
2023-01-30T06:24:04.027Z,13.05
2023-01-30T06:26:30.854Z,12.52
2023-01-30T06:28:57.595Z,12.73
2023-01-30T06:31:24.651Z,14.10
2023-01-30T06:33:51.379Z,10.27
2023-01-30T06:36:17.944Z,13.05
2023-01-30T06:38:44.516Z,13.13
2023-01-30T06:41:11.154Z,12.10
2023-01-30T06:43:37.948Z,13.65
2023-01-30T06:46:05.316Z,14.30
2023-01-30T06:48:32.013Z,21.15
2023-01-30T06:50:58.863Z,15.32
2023-01-30T06:53:30.554Z,14.82
2023-01-30T06:56:01.689Z,14.35
2023-01-30T06:58:28.698Z,14.75
2023-01-30T07:00:56.036Z,14.88
2023-01-30T07:03:23.420Z,15.18
2023-01-30T07:05:53.861Z,13.13
2023-01-30T07:08:22.504Z,15.13
2023-01-30T07:10:50.167Z,15.85
2023-01-30T07:13:17.112Z,14.40
2023-01-30T07:15:45.187Z,14.95
2023-01-30T07:18:12.246Z,13.43
2023-01-30T07:20:39.292Z,12.30
2023-01-30T07:23:05.976Z,13.80
2023-01-30T07:25:32.819Z,12.32
2023-01-30T07:28:01.846Z,13.32
2023-01-30T07:30:32.250Z,14.65
2023-01-30T07:33:00.007Z,15.15
2023-01-30T07:35:29.477Z,15.45
2023-01-30T07:37:56.637Z,16.85
2023-01-30T07:40:24.627Z,17.25
2023-01-30T07:43:06.071Z,15.30
2023-01-30T07:45:47.433Z,15.25
2023-01-30T07:48:16.598Z,16.25
2023-01-30T07:50:44.032Z,16.60
2023-01-30T07:53:13.784Z,18.50
2023-01-30T07:55:40.917Z,17.88
2023-01-30T07:58:07.902Z,18.30
2023-01-30T08:00:35.499Z,17.88
2023-01-30T08:03:02.100Z,17.52
2023-01-30T08:05:28.667Z,18.92
2023-01-30T08:07:56.983Z,19.73
2023-01-30T08:10:23.859Z,18.00
2023-01-30T08:12:51.849Z,17.55
2023-01-30T08:15:20.145Z,18.90
2023-01-30T08:17:56.213Z,17.40
2023-01-30T08:20:24.079Z,16.75
2023-01-30T08:22:50.708Z,16.08
2023-01-30T08:25:17.522Z,17.08
2023-01-30T08:27:44.576Z,17.00
2023-01-30T08:30:13.112Z,15.82
2023-01-30T08:32:39.782Z,17.13
2023-01-30T08:35:06.909Z,18.90
2023-01-30T08:37:33.690Z,14.07
2023-01-30T08:40:00.363Z,14.23
2023-01-30T08:42:27.164Z,13.27
2023-01-30T08:44:53.855Z,16.85
2023-01-30T08:47:20.583Z,13.38
2023-01-30T08:49:47.564Z,35.72
2023-01-30T08:52:14.190Z,50.90
2023-01-30T08:54:40.996Z,25.98
2023-01-30T08:57:07.611Z,43.28
2023-01-30T08:59:34.207Z,53.70
2023-01-30T09:02:00.851Z,80.32
2023-01-30T09:04:30.236Z,81.28
2023-01-30T09:06:56.955Z,20.88
2023-01-30T09:09:23.684Z,9.80
2023-01-30T09:11:50.398Z,10.38
2023-01-30T09:14:19.864Z,7.78
2023-01-30T09:16:48.499Z,8.95
2023-01-30T09:19:15.238Z,8.75
2023-01-30T09:21:41.895Z,7.70
2023-01-30T09:24:08.594Z,8.80
2023-01-30T09:26:35.208Z,8.20
2023-01-30T09:29:01.945Z,6.55
2023-01-30T09:31:28.875Z,8.00
2023-01-30T09:33:55.948Z,9.32
2023-01-30T09:36:22.659Z,9.05
2023-01-30T09:38:49.391Z,6.43
2023-01-30T09:41:18.734Z,5.78
2023-01-30T09:44:10.422Z,5.82
2023-01-30T09:47:11.348Z,6.13
2023-01-30T09:50:01.574Z,6.20
2023-01-30T09:52:54.587Z,7.10
2023-01-30T09:55:25.176Z,8.93
2023-01-30T09:57:52.787Z,6.80
2023-01-30T10:00:42.377Z,8.48
2023-01-30T10:03:09.004Z,7.00
2023-01-30T10:06:11.009Z,6.53
2023-01-30T10:08:54.207Z,8.02
2023-01-30T10:11:41.303Z,4.97
2023-01-30T10:14:21.028Z,7.15
2023-01-30T10:17:10.039Z,7.18
2023-01-30T10:19:48.561Z,7.50
2023-01-30T10:22:15.100Z,8.10
2023-01-30T10:24:47.620Z,8.43
2023-01-30T10:27:17.601Z,8.90
2023-01-30T10:29:51.560Z,8.95
2023-01-30T10:32:30.516Z,9.88
2023-01-30T10:35:04.886Z,9.38
2023-01-30T10:37:42.347Z,10.32
2023-01-30T10:40:25.451Z,9.88
2023-01-30T10:43:17.143Z,8.90
2023-01-30T10:45:52.832Z,9.63
2023-01-30T10:48:45.315Z,9.65
2023-01-30T10:51:39.202Z,10.75
2023-01-30T10:54:13.579Z,8.52
2023-01-30T10:56:48.835Z,8.77
2023-01-30T10:59:32.701Z,9.23
2023-01-30T11:02:05.189Z,6.68
2023-01-30T11:04:44.239Z,7.28
2023-01-30T11:07:12.624Z,10.00
2023-01-30T11:09:49.771Z,8.27
2023-01-30T11:12:16.339Z,8.80
2023-01-30T11:14:56.738Z,10.20
2023-01-30T11:17:36.215Z,10.60
2023-01-30T11:20:19.421Z,10.68
2023-01-30T11:22:50.735Z,9.63
2023-01-30T11:25:21.959Z,10.88
2023-01-30T11:28:04.482Z,10.25
2023-01-30T11:30:35.798Z,6.18
2023-01-30T11:33:13.044Z,7.85
2023-01-30T11:35:52.947Z,6.43
2023-01-30T11:38:32.106Z,7.40
2023-01-30T11:41:21.286Z,8.52
2023-01-30T11:43:48.592Z,10.23
2023-01-30T11:46:20.603Z,7.85
2023-01-30T11:49:02.030Z,8.93
2023-01-30T11:51:38.459Z,9.15
2023-01-30T11:54:12.008Z,9.32
2023-01-30T11:56:52.047Z,10.75
2023-01-30T11:59:18.672Z,8.48
2023-01-30T12:01:45.346Z,9.38
2023-01-30T12:04:13.770Z,9.10
2023-01-30T12:06:42.908Z,11.35
2023-01-30T12:09:40.047Z,10.90
2023-01-30T12:12:29.648Z,9.60
2023-01-30T12:15:17.891Z,8.35
2023-01-30T12:17:47.900Z,10.45
2023-01-30T12:20:59.999Z,7.30
2023-01-30T12:23:39.524Z,8.40
2023-01-30T12:26:34.047Z,9.10
2023-01-30T12:29:26.039Z,9.57
2023-01-30T12:32:04.868Z,8.70
2023-01-30T12:34:31.727Z,7.22
2023-01-30T12:37:27.568Z,8.50
2023-01-30T12:40:16.485Z,5.13
2023-01-30T12:43:15.751Z,9.10
2023-01-30T12:46:01.310Z,8.02
2023-01-30T12:49:07.889Z,7.60
2023-01-30T12:51:43.965Z,9.07
2023-01-30T12:54:36.556Z,8.90
2023-01-30T12:57:15.371Z,7.05
2023-01-30T12:59:49.017Z,8.40
2023-01-30T13:02:18.364Z,7.63
2023-01-30T13:05:04.668Z,7.22
2023-01-30T13:08:02.254Z,6.95
2023-01-30T13:10:39.610Z,7.70
2023-01-30T13:13:19.093Z,7.82
2023-01-30T13:16:06.587Z,8.25
2023-01-30T13:18:39.982Z,9.07
2023-01-30T13:21:19.268Z,7.75
2023-01-30T13:24:07.565Z,8.65
2023-01-30T13:26:37.341Z,9.02
2023-01-30T13:29:16.436Z,10.27
2023-01-30T13:31:53.793Z,10.65
2023-01-30T13:34:35.340Z,10.40
2023-01-30T13:37:08.620Z,8.75
2023-01-30T13:40:15.965Z,12.40
2023-01-30T13:43:10.189Z,7.95
2023-01-30T13:45:42.350Z,10.07
2023-01-30T13:48:33.688Z,9.45
2023-01-30T13:51:26.417Z,6.25
2023-01-30T13:54:11.250Z,7.10
2023-01-30T13:56:46.545Z,8.45
2023-01-30T13:59:50.629Z,7.60
2023-01-30T14:02:25.196Z,9.43
2023-01-30T14:04:54.051Z,5.88
2023-01-30T14:07:43.098Z,6.28
2023-01-30T14:10:09.678Z,9.45
2023-01-30T14:12:40.862Z,9.50
2023-01-30T14:15:20.078Z,9.65
2023-01-30T14:18:07.471Z,10.68
2023-01-30T14:20:41.078Z,9.90
2023-01-30T14:23:28.878Z,8.65
2023-01-30T14:25:59.100Z,9.18
2023-01-30T14:28:28.773Z,9.70
2023-01-30T14:31:00.844Z,8.20
2023-01-30T14:33:27.611Z,7.78
2023-01-30T14:36:03.238Z,7.80
2023-01-30T14:38:38.466Z,10.10
2023-01-30T14:41:05.295Z,7.20
2023-01-30T14:43:36.606Z,7.72
2023-01-30T14:46:19.714Z,8.82
2023-01-30T14:48:56.876Z,8.52
2023-01-30T14:51:32.008Z,8.10
2023-01-30T14:54:14.823Z,10.98
2023-01-30T14:57:02.354Z,12.10
2023-01-30T14:59:38.506Z,7.38
2023-01-30T15:02:14.811Z,12.23
2023-01-30T15:04:50.623Z,11.57
2023-01-30T15:07:25.827Z,12.63
2023-01-30T15:10:01.542Z,8.50
2023-01-30T15:12:53.540Z,9.77
2023-01-30T15:15:52.996Z,8.40
2023-01-30T15:18:22.704Z,10.73
2023-01-30T15:20:49.416Z,13.43
2023-01-30T15:23:32.269Z,13.10
2023-01-30T15:26:52.521Z,22.38
2023-01-30T15:29:31.228Z,9.52
2023-01-30T15:32:00.764Z,10.95
2023-01-30T15:34:29.523Z,9.70
2023-01-30T15:36:56.759Z,11.65
2023-01-30T15:39:25.590Z,9.82
2023-01-30T15:41:57.165Z,12.90
2023-01-30T15:44:44.159Z,11.30
2023-01-30T15:47:41.439Z,10.35
2023-01-30T15:50:10.437Z,12.73
2023-01-30T15:52:40.701Z,13.40
2023-01-30T15:55:15.330Z,12.10
2023-01-30T15:57:45.615Z,12.13
2023-01-30T16:00:27.576Z,10.23
2023-01-30T16:02:55.198Z,25.40
2023-01-30T16:05:25.460Z,13.30
2023-01-30T16:07:55.293Z,13.15
2023-01-30T16:10:25.573Z,12.32
2023-01-30T16:12:56.377Z,12.02
2023-01-30T16:15:40.200Z,9.52
2023-01-30T16:18:18.889Z,10.77
2023-01-30T16:21:02.454Z,9.25
2023-01-30T16:24:00.186Z,8.70
2023-01-30T16:26:27.145Z,8.65
2023-01-30T16:29:01.572Z,10.75
2023-01-30T16:31:37.714Z,7.10
2023-01-30T16:34:05.191Z,12.02
2023-01-30T16:36:39.642Z,12.00
2023-01-30T16:39:33.226Z,21.77
2023-01-30T16:42:01.627Z,11.70
2023-01-30T16:44:30.202Z,12.13
2023-01-30T16:47:25.612Z,11.77
2023-01-30T16:49:54.862Z,10.82
2023-01-30T16:52:37.070Z,10.77
2023-01-30T16:55:07.617Z,11.70
2023-01-30T16:57:40.571Z,11.32
2023-01-30T17:00:10.153Z,11.15
2023-01-30T17:02:41.202Z,12.20
2023-01-30T17:05:22.801Z,12.52
2023-01-30T17:07:51.558Z,11.23
2023-01-30T17:10:40.258Z,10.77
2023-01-30T17:13:41.810Z,10.63
2023-01-30T17:16:31.233Z,11.23
2023-01-30T17:18:58.664Z,10.52
2023-01-30T17:21:28.527Z,9.90
2023-01-30T17:23:58.604Z,9.23
2023-01-30T17:26:25.317Z,10.07
2023-01-30T17:28:51.988Z,9.18
2023-01-30T17:31:20.648Z,6.88
2023-01-30T17:33:47.517Z,10.65
2023-01-30T17:36:26.315Z,8.30
2023-01-30T17:38:53.679Z,9.38
2023-01-30T17:41:33.567Z,9.68
2023-01-30T17:44:00.339Z,7.97
2023-01-30T17:46:48.921Z,9.55
2023-01-30T17:49:21.165Z,7.68
2023-01-30T17:51:48.746Z,7.90
2023-01-30T17:54:20.060Z,8.55
2023-01-30T17:56:54.901Z,6.60
2023-01-30T17:59:22.416Z,8.70
2023-01-30T18:01:51.017Z,8.65
2023-01-30T18:04:19.221Z,8.88
2023-01-30T18:06:49.332Z,9.15
2023-01-30T18:09:19.568Z,10.98
2023-01-30T18:11:47.357Z,10.73
2023-01-30T18:14:14.790Z,9.50
2023-01-30T18:16:41.929Z,10.60
2023-01-30T18:19:12.088Z,11.48
2023-01-30T18:21:40.218Z,11.32
2023-01-30T18:24:07.727Z,11.48
2023-01-30T18:26:35.619Z,11.45
2023-01-30T18:29:02.414Z,10.63
2023-01-30T18:31:30.346Z,10.90
2023-01-30T18:33:58.142Z,11.50
2023-01-30T18:36:25.453Z,11.35
2023-01-30T18:38:53.661Z,11.25
2023-01-30T18:41:23.631Z,9.43
2023-01-30T18:43:55.664Z,12.50
2023-01-30T18:46:22.913Z,15.18
2023-01-30T18:48:49.663Z,13.50
2023-01-30T18:51:21.558Z,13.55
2023-01-30T18:53:49.772Z,12.60
2023-01-30T18:56:20.809Z,13.82
2023-01-30T18:58:52.499Z,14.20
2023-01-30T19:01:22.221Z,14.27
2023-01-30T19:03:49.362Z,13.98
2023-01-30T19:06:18.460Z,14.90
2023-01-30T19:08:46.173Z,14.70
2023-01-30T19:11:34.342Z,14.50
2023-01-30T19:14:01.544Z,14.55
2023-01-30T19:16:29.833Z,13.73
2023-01-30T19:18:57.195Z,12.93
2023-01-30T19:21:25.834Z,11.98
2023-01-30T19:23:53.505Z,11.18
2023-01-30T19:26:22.402Z,10.85
2023-01-30T19:28:49.398Z,10.45
2023-01-30T19:31:19.371Z,13.27
2023-01-30T19:33:48.376Z,11.55
2023-01-30T19:36:18.272Z,12.43
2023-01-30T19:38:46.323Z,12.60
2023-01-30T19:41:19.590Z,12.38
2023-01-30T19:43:46.481Z,11.43
2023-01-30T19:46:13.491Z,11.52
2023-01-30T19:48:44.876Z,10.85
2023-01-30T19:51:15.790Z,10.50
2023-01-30T19:53:44.463Z,10.75
2023-01-30T19:56:13.020Z,9.43
2023-01-30T19:58:40.822Z,10.80
2023-01-30T20:01:14.510Z,11.43
2023-01-30T20:03:42.436Z,11.05
2023-01-30T20:06:31.900Z,9.10
2023-01-30T20:09:02.820Z,9.65
2023-01-30T20:11:30.187Z,9.43
2023-01-30T20:13:57.515Z,10.27
2023-01-30T20:16:27.835Z,9.82
2023-01-30T20:19:00.411Z,10.85
2023-01-30T20:21:29.585Z,10.38
2023-01-30T20:23:57.690Z,11.65
2023-01-30T20:26:30.910Z,11.10
2023-01-30T20:28:58.044Z,9.18
2023-01-30T20:31:26.689Z,10.00
2023-01-30T20:33:56.183Z,9.82
2023-01-30T20:36:24.598Z,9.60
2023-01-30T20:38:52.640Z,8.65
2023-01-30T20:41:24.288Z,9.10
2023-01-30T20:43:53.098Z,9.50
2023-01-30T20:46:22.261Z,9.00
2023-01-30T20:48:54.499Z,8.52
2023-01-30T20:51:23.940Z,8.23
2023-01-30T20:53:51.858Z,8.82
2023-01-30T20:56:19.589Z,8.18
2023-01-30T20:58:46.798Z,9.48
2023-01-30T21:01:20.195Z,7.97
2023-01-30T21:03:49.527Z,9.02
2023-01-30T21:06:41.456Z,8.00
2023-01-30T21:09:11.655Z,8.70
2023-01-30T21:11:39.627Z,7.22
2023-01-30T21:14:06.701Z,7.43
2023-01-30T21:16:34.777Z,8.45
2023-01-30T21:19:05.385Z,8.10
2023-01-30T21:21:47.000Z,8.77
2023-01-30T21:24:16.362Z,7.75
2023-01-30T21:26:46.435Z,8.52
2023-01-30T21:29:18.449Z,8.60
2023-01-30T21:31:45.654Z,7.80
2023-01-30T21:34:13.227Z,9.52
2023-01-30T21:36:40.438Z,9.45
2023-01-30T21:39:26.062Z,9.73
2023-01-30T21:42:11.437Z,10.18
2023-01-30T21:44:38.171Z,10.30
2023-01-30T21:47:06.607Z,10.07
2023-01-30T21:49:33.971Z,10.30
2023-01-30T21:52:00.669Z,10.85
2023-01-30T21:54:28.027Z,11.02
2023-01-30T21:56:55.685Z,10.15
2023-01-30T21:59:22.386Z,9.90
2023-01-30T22:01:49.288Z,10.15
2023-01-30T22:04:16.566Z,10.20
2023-01-30T22:06:44.218Z,9.30
2023-01-30T22:09:15.839Z,9.60
2023-01-30T22:11:42.966Z,8.65
2023-01-30T22:14:13.554Z,8.13
2023-01-30T22:16:41.191Z,8.70
2023-01-30T22:19:08.256Z,9.23
2023-01-30T22:21:38.570Z,9.70
2023-01-30T22:24:07.572Z,8.45
2023-01-30T22:26:34.700Z,8.30
2023-01-30T22:29:02.978Z,9.10
2023-01-30T22:31:34.751Z,9.13
2023-01-30T22:34:03.533Z,8.35
2023-01-30T22:36:32.615Z,8.55
2023-01-30T22:38:59.637Z,8.23
2023-01-30T22:41:27.881Z,8.68
2023-01-30T22:43:59.418Z,8.85
2023-01-30T22:46:36.283Z,8.77
2023-01-30T22:49:05.298Z,9.27
2023-01-30T22:51:35.101Z,8.77
2023-01-30T22:54:05.236Z,9.05
2023-01-30T22:56:40.939Z,9.15
2023-01-30T22:59:08.712Z,8.10
2023-01-30T23:01:43.800Z,9.15
2023-01-30T23:04:12.048Z,8.80
2023-01-30T23:06:39.420Z,9.20
2023-01-30T23:09:07.581Z,9.60
2023-01-30T23:11:43.331Z,10.15
2023-01-30T23:14:16.197Z,9.50
2023-01-30T23:16:45.042Z,10.18
2023-01-30T23:19:13.379Z,9.30
2023-01-30T23:21:43.182Z,9.40
2023-01-30T23:24:12.972Z,9.98
2023-01-30T23:26:43.091Z,9.48
2023-01-30T23:29:15.730Z,9.32
2023-01-30T23:31:44.320Z,9.55
2023-01-30T23:34:18.436Z,10.60
2023-01-30T23:36:46.269Z,8.68
2023-01-30T23:39:14.341Z,9.80
2023-01-30T23:41:42.693Z,9.90
2023-01-30T23:44:09.540Z,9.95
2023-01-30T23:46:40.593Z,10.40
2023-01-30T23:49:13.017Z,10.45
2023-01-30T23:51:41.965Z,9.80
2023-01-30T23:54:09.290Z,10.50
2023-01-30T23:56:38.780Z,9.27
2023-01-30T23:59:06.406Z,9.85
